sensor_id;sensor_type;location;lat;lon;timestamp;P1;durP1;ratioP1;P2;durP2;ratioP2
74715;SDS011;63234;37.558;127.058;2023-08-07T00:02:09;25.33;;;23.92;;
74715;SDS011;63234;37.558;127.058;2023-08-07T00:04:35;26.25;;;24.67;;
74715;SDS011;63234;37.558;127.058;2023-08-07T00:07:01;30.05;;;28.48;;
74715;SDS011;63234;37.558;127.058;2023-08-07T00:09:27;28.63;;;27.13;;
74715;SDS011;63234;37.558;127.058;2023-08-07T00:11:53;25.05;;;23.75;;
74715;SDS011;63234;37.558;127.058;2023-08-07T00:14:19;26.83;;;25.33;;
74715;SDS011;63234;37.558;127.058;2023-08-07T00:16:45;25.35;;;23.70;;
74715;SDS011;63234;37.558;127.058;2023-08-07T00:19:11;26.77;;;25.38;;
74715;SDS011;63234;37.558;127.058;2023-08-07T00:21:37;24.23;;;22.75;;
74715;SDS011;63234;37.558;127.058;2023-08-07T00:24:04;22.88;;;21.67;;
74715;SDS011;63234;37.558;127.058;2023-08-07T00:26:30;24.30;;;23.00;;
74715;SDS011;63234;37.558;127.058;2023-08-07T00:28:57;24.45;;;23.05;;
74715;SDS011;63234;37.558;127.058;2023-08-07T00:31:23;28.10;;;26.65;;
74715;SDS011;63234;37.558;127.058;2023-08-07T00:33:49;26.27;;;24.83;;
74715;SDS011;63234;37.558;127.058;2023-08-07T00:36:19;25.02;;;23.73;;
74715;SDS011;63234;37.558;127.058;2023-08-07T00:38:45;25.77;;;24.17;;
74715;SDS011;63234;37.558;127.058;2023-08-07T00:41:11;30.27;;;28.67;;
74715;SDS011;63234;37.558;127.058;2023-08-07T00:43:37;26.75;;;25.15;;
74715;SDS011;63234;37.558;127.058;2023-08-07T00:46:03;26.17;;;24.38;;
74715;SDS011;63234;37.558;127.058;2023-08-07T00:48:29;28.25;;;26.85;;
74715;SDS011;63234;37.558;127.058;2023-08-07T00:50:56;29.17;;;27.58;;
74715;SDS011;63234;37.558;127.058;2023-08-07T00:53:23;27.13;;;25.63;;
74715;SDS011;63234;37.558;127.058;2023-08-07T00:55:49;29.63;;;27.92;;
74715;SDS011;63234;37.558;127.058;2023-08-07T00:58:16;31.40;;;29.83;;
74715;SDS011;63234;37.558;127.058;2023-08-07T01:00:43;30.15;;;28.55;;
74715;SDS011;63234;37.558;127.058;2023-08-07T01:03:11;27.77;;;26.38;;
74715;SDS011;63234;37.558;127.058;2023-08-07T01:05:39;28.27;;;26.77;;
74715;SDS011;63234;37.558;127.058;2023-08-07T01:08:05;28.15;;;26.58;;
74715;SDS011;63234;37.558;127.058;2023-08-07T01:13:23;29.73;;;28.23;;
74715;SDS011;63234;37.558;127.058;2023-08-07T01:15:55;31.70;;;30.05;;
74715;SDS011;63234;37.558;127.058;2023-08-07T01:18:25;34.38;;;32.47;;
74715;SDS011;63234;37.558;127.058;2023-08-07T01:20:52;32.17;;;30.48;;
74715;SDS011;63234;37.558;127.058;2023-08-07T01:23:18;30.77;;;28.90;;
74715;SDS011;63234;37.558;127.058;2023-08-07T01:25:44;32.25;;;30.45;;
74715;SDS011;63234;37.558;127.058;2023-08-07T01:28:33;29.55;;;28.00;;
74715;SDS011;63234;37.558;127.058;2023-08-07T01:31:03;32.10;;;30.20;;
74715;SDS011;63234;37.558;127.058;2023-08-07T01:33:38;27.85;;;26.10;;
74715;SDS011;63234;37.558;127.058;2023-08-07T01:36:13;30.13;;;28.52;;
74715;SDS011;63234;37.558;127.058;2023-08-07T01:38:41;28.48;;;26.75;;
74715;SDS011;63234;37.558;127.058;2023-08-07T01:41:08;30.25;;;28.35;;
74715;SDS011;63234;37.558;127.058;2023-08-07T01:43:35;32.72;;;30.70;;
74715;SDS011;63234;37.558;127.058;2023-08-07T01:46:01;29.70;;;28.20;;
74715;SDS011;63234;37.558;127.058;2023-08-07T01:48:28;31.58;;;29.73;;
74715;SDS011;63234;37.558;127.058;2023-08-07T01:50:54;30.30;;;28.45;;
74715;SDS011;63234;37.558;127.058;2023-08-07T01:53:20;33.15;;;31.45;;
74715;SDS011;63234;37.558;127.058;2023-08-07T01:55:46;36.38;;;34.50;;
74715;SDS011;63234;37.558;127.058;2023-08-07T01:58:12;32.55;;;30.67;;
74715;SDS011;63234;37.558;127.058;2023-08-07T02:00:38;28.42;;;26.83;;
74715;SDS011;63234;37.558;127.058;2023-08-07T02:03:04;31.10;;;29.33;;
74715;SDS011;63234;37.558;127.058;2023-08-07T02:05:30;42.28;;;39.78;;
74715;SDS011;63234;37.558;127.058;2023-08-07T02:07:56;31.20;;;29.50;;
74715;SDS011;63234;37.558;127.058;2023-08-07T02:10:22;30.63;;;28.60;;
74715;SDS011;63234;37.558;127.058;2023-08-07T02:12:50;32.67;;;30.63;;
74715;SDS011;63234;37.558;127.058;2023-08-07T02:15:16;32.95;;;31.15;;
74715;SDS011;63234;37.558;127.058;2023-08-07T02:17:42;28.83;;;27.13;;
74715;SDS011;63234;37.558;127.058;2023-08-07T02:20:08;31.48;;;29.25;;
74715;SDS011;63234;37.558;127.058;2023-08-07T02:22:34;31.17;;;29.48;;
74715;SDS011;63234;37.558;127.058;2023-08-07T02:25:00;28.98;;;27.27;;
74715;SDS011;63234;37.558;127.058;2023-08-07T02:27:26;32.10;;;30.00;;
74715;SDS011;63234;37.558;127.058;2023-08-07T02:29:52;32.00;;;30.23;;
74715;SDS011;63234;37.558;127.058;2023-08-07T02:32:19;30.85;;;29.00;;
74715;SDS011;63234;37.558;127.058;2023-08-07T02:34:45;29.25;;;27.35;;
74715;SDS011;63234;37.558;127.058;2023-08-07T02:37:11;28.98;;;27.40;;
74715;SDS011;63234;37.558;127.058;2023-08-07T02:39:37;31.45;;;29.70;;
74715;SDS011;63234;37.558;127.058;2023-08-07T02:42:03;33.20;;;31.10;;
74715;SDS011;63234;37.558;127.058;2023-08-07T02:44:29;30.45;;;28.45;;
74715;SDS011;63234;37.558;127.058;2023-08-07T02:46:55;30.73;;;28.92;;
74715;SDS011;63234;37.558;127.058;2023-08-07T02:49:21;32.15;;;30.27;;
74715;SDS011;63234;37.558;127.058;2023-08-07T02:51:47;31.45;;;29.65;;
74715;SDS011;63234;37.558;127.058;2023-08-07T02:54:13;30.10;;;27.80;;
74715;SDS011;63234;37.558;127.058;2023-08-07T02:56:38;31.50;;;29.58;;
74715;SDS011;63234;37.558;127.058;2023-08-07T02:59:06;33.13;;;31.25;;
74715;SDS011;63234;37.558;127.058;2023-08-07T03:01:32;29.45;;;27.65;;
74715;SDS011;63234;37.558;127.058;2023-08-07T03:03:58;32.30;;;30.63;;
74715;SDS011;63234;37.558;127.058;2023-08-07T03:06:24;32.10;;;30.40;;
74715;SDS011;63234;37.558;127.058;2023-08-07T03:08:50;28.95;;;26.92;;
74715;SDS011;63234;37.558;127.058;2023-08-07T03:11:16;30.23;;;28.42;;
74715;SDS011;63234;37.558;127.058;2023-08-07T03:13:42;29.30;;;27.67;;
74715;SDS011;63234;37.558;127.058;2023-08-07T03:16:09;28.10;;;26.55;;
74715;SDS011;63234;37.558;127.058;2023-08-07T03:18:35;31.05;;;29.10;;
74715;SDS011;63234;37.558;127.058;2023-08-07T03:21:01;28.75;;;27.20;;
74715;SDS011;63234;37.558;127.058;2023-08-07T03:23:27;27.05;;;25.55;;
74715;SDS011;63234;37.558;127.058;2023-08-07T03:26:06;28.95;;;26.95;;
74715;SDS011;63234;37.558;127.058;2023-08-07T03:28:34;30.05;;;28.33;;
74715;SDS011;63234;37.558;127.058;2023-08-07T03:31:01;28.33;;;26.67;;
74715;SDS011;63234;37.558;127.058;2023-08-07T03:33:29;34.05;;;32.25;;
74715;SDS011;63234;37.558;127.058;2023-08-07T03:35:55;29.45;;;27.83;;
74715;SDS011;63234;37.558;127.058;2023-08-07T03:38:21;41.50;;;39.20;;
74715;SDS011;63234;37.558;127.058;2023-08-07T03:40:47;31.92;;;29.73;;
74715;SDS011;63234;37.558;127.058;2023-08-07T03:43:13;30.85;;;29.25;;
74715;SDS011;63234;37.558;127.058;2023-08-07T03:45:39;35.50;;;33.60;;
74715;SDS011;63234;37.558;127.058;2023-08-07T03:48:06;31.70;;;29.95;;
74715;SDS011;63234;37.558;127.058;2023-08-07T03:50:32;32.35;;;30.45;;
74715;SDS011;63234;37.558;127.058;2023-08-07T03:53:00;35.25;;;33.25;;
74715;SDS011;63234;37.558;127.058;2023-08-07T03:55:26;30.80;;;28.55;;
74715;SDS011;63234;37.558;127.058;2023-08-07T03:57:52;28.40;;;26.80;;
74715;SDS011;63234;37.558;127.058;2023-08-07T04:00:18;38.25;;;36.13;;
74715;SDS011;63234;37.558;127.058;2023-08-07T04:03:04;30.85;;;29.20;;
74715;SDS011;63234;37.558;127.058;2023-08-07T04:05:32;30.50;;;28.70;;
74715;SDS011;63234;37.558;127.058;2023-08-07T04:07:59;115.32;;;109.35;;
74715;SDS011;63234;37.558;127.058;2023-08-07T04:10:25;28.42;;;26.83;;
74715;SDS011;63234;37.558;127.058;2023-08-07T04:12:51;42.95;;;40.58;;
74715;SDS011;63234;37.558;127.058;2023-08-07T04:15:17;37.33;;;35.35;;
74715;SDS011;63234;37.558;127.058;2023-08-07T04:17:42;34.35;;;32.45;;
74715;SDS011;63234;37.558;127.058;2023-08-07T04:20:08;34.25;;;32.35;;
74715;SDS011;63234;37.558;127.058;2023-08-07T04:22:35;33.00;;;30.73;;
74715;SDS011;63234;37.558;127.058;2023-08-07T04:25:01;34.58;;;32.55;;
74715;SDS011;63234;37.558;127.058;2023-08-07T04:27:27;35.03;;;32.63;;
74715;SDS011;63234;37.558;127.058;2023-08-07T04:29:53;39.47;;;37.30;;
74715;SDS011;63234;37.558;127.058;2023-08-07T04:32:19;33.80;;;31.88;;
74715;SDS011;63234;37.558;127.058;2023-08-07T04:34:45;33.90;;;32.10;;
74715;SDS011;63234;37.558;127.058;2023-08-07T04:37:11;41.45;;;39.08;;
74715;SDS011;63234;37.558;127.058;2023-08-07T04:39:37;32.78;;;30.95;;
74715;SDS011;63234;37.558;127.058;2023-08-07T04:42:03;41.58;;;39.08;;
74715;SDS011;63234;37.558;127.058;2023-08-07T04:44:29;44.28;;;41.63;;
74715;SDS011;63234;37.558;127.058;2023-08-07T04:46:55;35.97;;;34.00;;
74715;SDS011;63234;37.558;127.058;2023-08-07T04:49:21;113.13;;;107.43;;
74715;SDS011;63234;37.558;127.058;2023-08-07T04:51:48;39.35;;;36.92;;
74715;SDS011;63234;37.558;127.058;2023-08-07T04:54:14;35.03;;;33.00;;
74715;SDS011;63234;37.558;127.058;2023-08-07T04:56:39;36.15;;;33.25;;
74715;SDS011;63234;37.558;127.058;2023-08-07T04:59:07;39.03;;;36.88;;
74715;SDS011;63234;37.558;127.058;2023-08-07T05:01:33;31.08;;;29.25;;
74715;SDS011;63234;37.558;127.058;2023-08-07T05:03:59;33.25;;;31.27;;
74715;SDS011;63234;37.558;127.058;2023-08-07T05:06:25;185.32;;;176.18;;
74715;SDS011;63234;37.558;127.058;2023-08-07T05:08:51;48.65;;;46.05;;
74715;SDS011;63234;37.558;127.058;2023-08-07T05:11:32;32.78;;;30.50;;
74715;SDS011;63234;37.558;127.058;2023-08-07T05:14:02;32.22;;;30.02;;
74715;SDS011;63234;37.558;127.058;2023-08-07T05:16:28;31.40;;;29.13;;
74715;SDS011;63234;37.558;127.058;2023-08-07T05:18:54;38.75;;;36.45;;
74715;SDS011;63234;37.558;127.058;2023-08-07T05:21:20;31.50;;;29.27;;
74715;SDS011;63234;37.558;127.058;2023-08-07T05:23:46;32.33;;;30.23;;
74715;SDS011;63234;37.558;127.058;2023-08-07T05:26:13;33.72;;;31.60;;
74715;SDS011;63234;37.558;127.058;2023-08-07T05:28:39;30.70;;;28.67;;
74715;SDS011;63234;37.558;127.058;2023-08-07T05:31:05;31.17;;;29.17;;
74715;SDS011;63234;37.558;127.058;2023-08-07T05:33:31;31.98;;;30.17;;
74715;SDS011;63234;37.558;127.058;2023-08-07T05:35:57;36.30;;;34.28;;
74715;SDS011;63234;37.558;127.058;2023-08-07T05:38:22;29.77;;;28.02;;
74715;SDS011;63234;37.558;127.058;2023-08-07T05:40:48;32.40;;;30.48;;
74715;SDS011;63234;37.558;127.058;2023-08-07T05:43:15;30.42;;;28.77;;
74715;SDS011;63234;37.558;127.058;2023-08-07T05:45:42;71.35;;;67.85;;
74715;SDS011;63234;37.558;127.058;2023-08-07T05:48:10;41.67;;;39.40;;
74715;SDS011;63234;37.558;127.058;2023-08-07T05:50:36;35.22;;;33.03;;
74715;SDS011;63234;37.558;127.058;2023-08-07T05:53:01;33.33;;;30.80;;
74715;SDS011;63234;37.558;127.058;2023-08-07T05:55:27;30.90;;;28.77;;
74715;SDS011;63234;37.558;127.058;2023-08-07T05:57:53;40.13;;;37.60;;
74715;SDS011;63234;37.558;127.058;2023-08-07T06:00:19;38.70;;;36.50;;
74715;SDS011;63234;37.558;127.058;2023-08-07T06:02:45;31.10;;;29.27;;
74715;SDS011;63234;37.558;127.058;2023-08-07T06:05:11;30.38;;;28.42;;
74715;SDS011;63234;37.558;127.058;2023-08-07T06:07:39;32.78;;;30.92;;
74715;SDS011;63234;37.558;127.058;2023-08-07T06:10:05;31.05;;;29.27;;
74715;SDS011;63234;37.558;127.058;2023-08-07T06:12:32;30.58;;;28.73;;
74715;SDS011;63234;37.558;127.058;2023-08-07T06:14:57;28.65;;;27.10;;
74715;SDS011;63234;37.558;127.058;2023-08-07T06:17:23;33.65;;;31.67;;
74715;SDS011;63234;37.558;127.058;2023-08-07T06:19:49;43.25;;;40.85;;
74715;SDS011;63234;37.558;127.058;2023-08-07T06:22:15;29.77;;;28.08;;
74715;SDS011;63234;37.558;127.058;2023-08-07T06:24:41;32.03;;;30.23;;
74715;SDS011;63234;37.558;127.058;2023-08-07T06:27:06;36.70;;;34.67;;
74715;SDS011;63234;37.558;127.058;2023-08-07T06:29:32;34.83;;;32.75;;
74715;SDS011;63234;37.558;127.058;2023-08-07T06:31:58;32.78;;;30.77;;
74715;SDS011;63234;37.558;127.058;2023-08-07T06:34:24;56.78;;;53.92;;
74715;SDS011;63234;37.558;127.058;2023-08-07T06:36:50;32.65;;;30.85;;
74715;SDS011;63234;37.558;127.058;2023-08-07T06:39:15;29.83;;;28.13;;
74715;SDS011;63234;37.558;127.058;2023-08-07T06:41:41;36.17;;;33.70;;
74715;SDS011;63234;37.558;127.058;2023-08-07T06:44:07;30.13;;;27.85;;
74715;SDS011;63234;37.558;127.058;2023-08-07T06:46:33;431.98;;;408.25;;
74715;SDS011;63234;37.558;127.058;2023-08-07T06:48:59;434.13;;;410.17;;
74715;SDS011;63234;37.558;127.058;2023-08-07T06:51:25;30.42;;;28.60;;
74715;SDS011;63234;37.558;127.058;2023-08-07T06:53:50;33.83;;;31.80;;
74715;SDS011;63234;37.558;127.058;2023-08-07T06:56:16;76.05;;;72.15;;
74715;SDS011;63234;37.558;127.058;2023-08-07T06:58:43;58.20;;;54.67;;
74715;SDS011;63234;37.558;127.058;2023-08-07T07:01:09;57.83;;;54.78;;
74715;SDS011;63234;37.558;127.058;2023-08-07T07:03:34;49.92;;;47.33;;
74715;SDS011;63234;37.558;127.058;2023-08-07T07:06:00;60.35;;;56.97;;
74715;SDS011;63234;37.558;127.058;2023-08-07T07:08:26;63.95;;;60.72;;
74715;SDS011;63234;37.558;127.058;2023-08-07T07:10:52;84.30;;;80.15;;
74715;SDS011;63234;37.558;127.058;2023-08-07T07:13:18;50.75;;;48.05;;
74715;SDS011;63234;37.558;127.058;2023-08-07T07:15:44;24.10;;;22.70;;
74715;SDS011;63234;37.558;127.058;2023-08-07T07:18:10;105.25;;;99.85;;
74715;SDS011;63234;37.558;127.058;2023-08-07T07:20:35;24.63;;;23.00;;
74715;SDS011;63234;37.558;127.058;2023-08-07T07:23:01;22.73;;;21.23;;
74715;SDS011;63234;37.558;127.058;2023-08-07T07:25:27;20.92;;;19.25;;
74715;SDS011;63234;37.558;127.058;2023-08-07T07:27:53;34.53;;;32.47;;
74715;SDS011;63234;37.558;127.058;2023-08-07T07:30:19;30.17;;;28.40;;
74715;SDS011;63234;37.558;127.058;2023-08-07T07:32:46;33.55;;;31.55;;
74715;SDS011;63234;37.558;127.058;2023-08-07T07:35:12;22.58;;;20.92;;
74715;SDS011;63234;37.558;127.058;2023-08-07T07:37:37;458.85;;;433.15;;
74715;SDS011;63234;37.558;127.058;2023-08-07T07:40:03;110.38;;;104.63;;
74715;SDS011;63234;37.558;127.058;2023-08-07T07:42:29;885.88;;;815.20;;
74715;SDS011;63234;37.558;127.058;2023-08-07T07:44:55;1035.22;;;936.88;;
74715;SDS011;63234;37.558;127.058;2023-08-07T07:47:21;1009.60;;;906.95;;
74715;SDS011;63234;37.558;127.058;2023-08-07T07:49:47;1999.90;;;999.90;;
74715;SDS011;63234;37.558;127.058;2023-08-07T07:52:13;920.83;;;829.00;;
74715;SDS011;63234;37.558;127.058;2023-08-07T07:54:39;18.67;;;17.42;;
74715;SDS011;63234;37.558;127.058;2023-08-07T07:57:05;23.48;;;22.08;;
74715;SDS011;63234;37.558;127.058;2023-08-07T07:59:31;44.08;;;41.30;;
74715;SDS011;63234;37.558;127.058;2023-08-07T08:01:57;19.58;;;18.38;;
74715;SDS011;63234;37.558;127.058;2023-08-07T08:04:23;18.50;;;17.27;;
74715;SDS011;63234;37.558;127.058;2023-08-07T08:06:48;21.63;;;20.15;;
74715;SDS011;63234;37.558;127.058;2023-08-07T08:09:14;32.00;;;30.00;;
74715;SDS011;63234;37.558;127.058;2023-08-07T08:11:40;23.60;;;22.13;;
74715;SDS011;63234;37.558;127.058;2023-08-07T08:14:06;32.40;;;30.27;;
74715;SDS011;63234;37.558;127.058;2023-08-07T08:16:32;18.13;;;16.70;;
74715;SDS011;63234;37.558;127.058;2023-08-07T08:18:58;21.70;;;20.15;;
74715;SDS011;63234;37.558;127.058;2023-08-07T08:21:23;16.40;;;15.00;;
74715;SDS011;63234;37.558;127.058;2023-08-07T08:23:50;15.75;;;14.55;;
74715;SDS011;63234;37.558;127.058;2023-08-07T08:26:15;40.70;;;38.13;;
74715;SDS011;63234;37.558;127.058;2023-08-07T08:28:41;16.75;;;15.35;;
74715;SDS011;63234;37.558;127.058;2023-08-07T08:31:07;34.13;;;31.67;;
74715;SDS011;63234;37.558;127.058;2023-08-07T08:33:33;29.20;;;27.08;;
74715;SDS011;63234;37.558;127.058;2023-08-07T08:35:59;26.40;;;24.48;;
74715;SDS011;63234;37.558;127.058;2023-08-07T08:38:25;22.88;;;21.10;;
74715;SDS011;63234;37.558;127.058;2023-08-07T08:40:54;22.50;;;20.95;;
74715;SDS011;63234;37.558;127.058;2023-08-07T08:43:20;30.98;;;28.88;;
74715;SDS011;63234;37.558;127.058;2023-08-07T08:45:46;21.27;;;19.65;;
74715;SDS011;63234;37.558;127.058;2023-08-07T08:48:13;22.83;;;20.88;;
74715;SDS011;63234;37.558;127.058;2023-08-07T08:50:47;19.20;;;17.63;;
74715;SDS011;63234;37.558;127.058;2023-08-07T08:53:15;27.85;;;26.00;;
74715;SDS011;63234;37.558;127.058;2023-08-07T08:55:42;22.60;;;20.80;;
74715;SDS011;63234;37.558;127.058;2023-08-07T08:58:12;16.20;;;14.57;;
74715;SDS011;63234;37.558;127.058;2023-08-07T09:00:41;23.17;;;21.58;;
74715;SDS011;63234;37.558;127.058;2023-08-07T09:03:06;21.73;;;20.02;;
74715;SDS011;63234;37.558;127.058;2023-08-07T09:05:33;34.33;;;32.03;;
74715;SDS011;63234;37.558;127.058;2023-08-07T09:08:00;17.58;;;15.95;;
74715;SDS011;63234;37.558;127.058;2023-08-07T09:10:27;18.33;;;16.52;;
74715;SDS011;63234;37.558;127.058;2023-08-07T09:13:01;18.85;;;16.88;;
74715;SDS011;63234;37.558;127.058;2023-08-07T09:15:31;23.88;;;20.40;;
74715;SDS011;63234;37.558;127.058;2023-08-07T09:17:58;20.00;;;17.63;;
74715;SDS011;63234;37.558;127.058;2023-08-07T09:20:26;21.35;;;19.17;;
74715;SDS011;63234;37.558;127.058;2023-08-07T09:22:53;23.55;;;20.42;;
74715;SDS011;63234;37.558;127.058;2023-08-07T09:25:32;23.05;;;20.98;;
74715;SDS011;63234;37.558;127.058;2023-08-07T09:28:02;23.02;;;20.73;;
74715;SDS011;63234;37.558;127.058;2023-08-07T09:30:30;26.27;;;23.92;;
74715;SDS011;63234;37.558;127.058;2023-08-07T09:32:56;22.33;;;20.35;;
74715;SDS011;63234;37.558;127.058;2023-08-07T09:35:26;29.70;;;27.27;;
74715;SDS011;63234;37.558;127.058;2023-08-07T09:37:52;31.70;;;29.33;;
74715;SDS011;63234;37.558;127.058;2023-08-07T09:40:19;16.20;;;14.85;;
74715;SDS011;63234;37.558;127.058;2023-08-07T09:42:47;19.60;;;17.98;;
74715;SDS011;63234;37.558;127.058;2023-08-07T09:45:21;22.92;;;20.92;;
74715;SDS011;63234;37.558;127.058;2023-08-07T09:48:03;20.65;;;18.65;;
74715;SDS011;63234;37.558;127.058;2023-08-07T09:50:33;18.73;;;17.10;;
74715;SDS011;63234;37.558;127.058;2023-08-07T09:52:59;36.50;;;34.05;;
74715;SDS011;63234;37.558;127.058;2023-08-07T09:55:25;20.33;;;18.38;;
74715;SDS011;63234;37.558;127.058;2023-08-07T09:57:52;16.83;;;15.27;;
74715;SDS011;63234;37.558;127.058;2023-08-07T10:00:18;19.45;;;17.23;;
74715;SDS011;63234;37.558;127.058;2023-08-07T10:02:48;19.70;;;17.80;;
74715;SDS011;63234;37.558;127.058;2023-08-07T10:05:15;18.38;;;16.73;;
74715;SDS011;63234;37.558;127.058;2023-08-07T10:07:41;50.22;;;47.13;;
74715;SDS011;63234;37.558;127.058;2023-08-07T10:13:29;19.95;;;18.10;;
74715;SDS011;63234;37.558;127.058;2023-08-07T10:15:55;18.05;;;16.25;;
74715;SDS011;63234;37.558;127.058;2023-08-07T10:18:21;15.00;;;13.55;;
74715;SDS011;63234;37.558;127.058;2023-08-07T10:20:48;14.88;;;13.50;;
74715;SDS011;63234;37.558;127.058;2023-08-07T10:23:14;17.25;;;15.50;;
74715;SDS011;63234;37.558;127.058;2023-08-07T10:25:43;17.77;;;15.85;;
74715;SDS011;63234;37.558;127.058;2023-08-07T10:28:12;16.45;;;15.10;;
74715;SDS011;63234;37.558;127.058;2023-08-07T10:30:42;14.05;;;12.82;;
74715;SDS011;63234;37.558;127.058;2023-08-07T10:33:09;28.40;;;26.48;;
74715;SDS011;63234;37.558;127.058;2023-08-07T10:35:37;18.98;;;17.85;;
74715;SDS011;63234;37.558;127.058;2023-08-07T10:38:09;18.15;;;16.83;;
74715;SDS011;63234;37.558;127.058;2023-08-07T10:43:27;16.48;;;15.00;;
74715;SDS011;63234;37.558;127.058;2023-08-07T10:45:54;16.05;;;14.55;;
74715;SDS011;63234;37.558;127.058;2023-08-07T10:51:30;15.63;;;14.32;;
74715;SDS011;63234;37.558;127.058;2023-08-07T10:53:56;17.63;;;16.25;;
74715;SDS011;63234;37.558;127.058;2023-08-07T10:56:35;18.80;;;16.85;;
74715;SDS011;63234;37.558;127.058;2023-08-07T10:59:09;19.08;;;17.75;;
74715;SDS011;63234;37.558;127.058;2023-08-07T11:01:41;16.90;;;15.65;;
74715;SDS011;63234;37.558;127.058;2023-08-07T11:06:37;16.75;;;15.10;;
74715;SDS011;63234;37.558;127.058;2023-08-07T11:09:05;16.08;;;14.68;;
74715;SDS011;63234;37.558;127.058;2023-08-07T11:11:37;15.10;;;13.82;;
74715;SDS011;63234;37.558;127.058;2023-08-07T11:14:07;16.20;;;15.00;;
74715;SDS011;63234;37.558;127.058;2023-08-07T11:19:31;13.98;;;12.25;;
74715;SDS011;63234;37.558;127.058;2023-08-07T11:21:57;14.23;;;12.98;;
74715;SDS011;63234;37.558;127.058;2023-08-07T11:24:23;17.58;;;16.23;;
74715;SDS011;63234;37.558;127.058;2023-08-07T11:26:52;18.00;;;16.70;;
74715;SDS011;63234;37.558;127.058;2023-08-07T11:29:18;14.40;;;13.32;;
74715;SDS011;63234;37.558;127.058;2023-08-07T11:31:44;16.95;;;15.48;;
74715;SDS011;63234;37.558;127.058;2023-08-07T11:34:11;21.20;;;19.60;;
74715;SDS011;63234;37.558;127.058;2023-08-07T11:36:43;19.30;;;17.60;;
74715;SDS011;63234;37.558;127.058;2023-08-07T11:39:09;19.73;;;18.13;;
74715;SDS011;63234;37.558;127.058;2023-08-07T11:44:57;19.17;;;16.75;;
74715;SDS011;63234;37.558;127.058;2023-08-07T11:47:23;15.77;;;14.30;;
74715;SDS011;63234;37.558;127.058;2023-08-07T11:49:49;14.75;;;13.57;;
74715;SDS011;63234;37.558;127.058;2023-08-07T11:52:17;15.27;;;14.02;;
74715;SDS011;63234;37.558;127.058;2023-08-07T11:54:46;14.95;;;13.75;;
74715;SDS011;63234;37.558;127.058;2023-08-07T11:57:16;14.30;;;12.48;;
74715;SDS011;63234;37.558;127.058;2023-08-07T11:59:46;14.85;;;13.77;;
74715;SDS011;63234;37.558;127.058;2023-08-07T12:02:13;13.55;;;12.55;;
74715;SDS011;63234;37.558;127.058;2023-08-07T12:04:39;15.20;;;12.50;;
74715;SDS011;63234;37.558;127.058;2023-08-07T12:07:05;21.13;;;19.58;;
74715;SDS011;63234;37.558;127.058;2023-08-07T12:09:31;16.50;;;15.20;;
74715;SDS011;63234;37.558;127.058;2023-08-07T12:11:57;15.25;;;13.85;;
74715;SDS011;63234;37.558;127.058;2023-08-07T12:14:27;17.15;;;15.60;;
74715;SDS011;63234;37.558;127.058;2023-08-07T12:16:56;14.48;;;13.27;;
74715;SDS011;63234;37.558;127.058;2023-08-07T12:19:22;14.40;;;12.98;;
74715;SDS011;63234;37.558;127.058;2023-08-07T12:21:48;15.48;;;13.90;;
74715;SDS011;63234;37.558;127.058;2023-08-07T12:24:14;13.88;;;12.52;;
74715;SDS011;63234;37.558;127.058;2023-08-07T12:26:40;17.90;;;16.17;;
74715;SDS011;63234;37.558;127.058;2023-08-07T12:29:06;21.95;;;20.50;;
74715;SDS011;63234;37.558;127.058;2023-08-07T12:31:32;18.55;;;17.13;;
74715;SDS011;63234;37.558;127.058;2023-08-07T12:33:57;15.55;;;14.30;;
74715;SDS011;63234;37.558;127.058;2023-08-07T12:36:23;14.98;;;13.73;;
74715;SDS011;63234;37.558;127.058;2023-08-07T12:38:49;14.20;;;13.05;;
74715;SDS011;63234;37.558;127.058;2023-08-07T12:41:15;23.50;;;21.80;;
74715;SDS011;63234;37.558;127.058;2023-08-07T12:43:41;20.42;;;18.73;;
74715;SDS011;63234;37.558;127.058;2023-08-07T12:46:07;14.88;;;13.35;;
74715;SDS011;63234;37.558;127.058;2023-08-07T12:48:32;15.38;;;14.07;;
74715;SDS011;63234;37.558;127.058;2023-08-07T12:50:58;14.43;;;13.15;;
74715;SDS011;63234;37.558;127.058;2023-08-07T12:53:24;15.85;;;14.55;;
74715;SDS011;63234;37.558;127.058;2023-08-07T12:55:50;15.07;;;13.52;;
74715;SDS011;63234;37.558;127.058;2023-08-07T12:58:16;14.35;;;13.07;;
74715;SDS011;63234;37.558;127.058;2023-08-07T13:00:43;15.75;;;13.02;;
74715;SDS011;63234;37.558;127.058;2023-08-07T13:03:09;16.65;;;15.27;;
74715;SDS011;63234;37.558;127.058;2023-08-07T13:05:35;15.25;;;13.95;;
74715;SDS011;63234;37.558;127.058;2023-08-07T13:08:01;30.85;;;28.80;;
74715;SDS011;63234;37.558;127.058;2023-08-07T13:10:27;18.27;;;16.90;;
74715;SDS011;63234;37.558;127.058;2023-08-07T13:12:56;22.73;;;20.92;;
74715;SDS011;63234;37.558;127.058;2023-08-07T13:15:22;15.35;;;13.85;;
74715;SDS011;63234;37.558;127.058;2023-08-07T13:17:48;17.50;;;16.27;;
74715;SDS011;63234;37.558;127.058;2023-08-07T13:20:14;15.65;;;14.50;;
74715;SDS011;63234;37.558;127.058;2023-08-07T13:22:43;13.52;;;12.43;;
74715;SDS011;63234;37.558;127.058;2023-08-07T13:25:10;12.55;;;11.48;;
74715;SDS011;63234;37.558;127.058;2023-08-07T13:27:38;17.63;;;16.40;;
74715;SDS011;63234;37.558;127.058;2023-08-07T13:30:06;12.85;;;11.48;;
74715;SDS011;63234;37.558;127.058;2023-08-07T13:32:32;11.25;;;10.38;;
74715;SDS011;63234;37.558;127.058;2023-08-07T13:34:58;17.38;;;16.15;;
74715;SDS011;63234;37.558;127.058;2023-08-07T13:37:24;11.93;;;10.82;;
74715;SDS011;63234;37.558;127.058;2023-08-07T13:39:50;10.70;;;9.90;;
74715;SDS011;63234;37.558;127.058;2023-08-07T13:42:18;12.55;;;11.45;;
74715;SDS011;63234;37.558;127.058;2023-08-07T13:44:44;13.40;;;12.25;;
74715;SDS011;63234;37.558;127.058;2023-08-07T13:47:10;13.75;;;12.75;;
74715;SDS011;63234;37.558;127.058;2023-08-07T13:49:37;13.85;;;12.82;;
74715;SDS011;63234;37.558;127.058;2023-08-07T13:52:04;15.68;;;14.57;;
74715;SDS011;63234;37.558;127.058;2023-08-07T13:54:30;11.60;;;10.68;;
74715;SDS011;63234;37.558;127.058;2023-08-07T13:56:56;10.60;;;9.80;;
74715;SDS011;63234;37.558;127.058;2023-08-07T13:59:22;11.65;;;10.70;;
74715;SDS011;63234;37.558;127.058;2023-08-07T14:01:48;11.50;;;10.60;;
74715;SDS011;63234;37.558;127.058;2023-08-07T14:04:13;14.55;;;12.30;;
74715;SDS011;63234;37.558;127.058;2023-08-07T14:06:41;14.10;;;12.98;;
74715;SDS011;63234;37.558;127.058;2023-08-07T14:09:08;13.02;;;11.95;;
74715;SDS011;63234;37.558;127.058;2023-08-07T14:11:34;13.15;;;12.25;;
74715;SDS011;63234;37.558;127.058;2023-08-07T14:14:01;13.15;;;12.15;;
74715;SDS011;63234;37.558;127.058;2023-08-07T14:16:27;11.45;;;10.35;;